Terminal Aerodrome Forecast
Issued by NWS

Home | Current Version | Previous Version | Text Only | Print | Product List | Glossary On
Versions: 1 2 3 4 5 6 7 8 9 10 11 12 13 14
000
FTUS43 KIND 040500
TAFHUF
TAF
KHUF 040520Z 0406/0506 19006KT P6SM SCT100 BKN250
     FM041300 21008KT P6SM VCSH BKN050 BKN100
     FM041700 20010KT P6SM SCT050 BKN100
     FM050000 19005KT P6SM SCT050 BKN100=

USA.gov is the U.S. government's official web portal to all federal, state and local government web resources and services.